sensor_id;sensor_type;location;lat;lon;timestamp;pressure;altitude;pressure_sealevel;temperature;humidity
46392;BME280;32098;49.448;7.904;2023-01-15T00:02:05;96720.25;;;7.38;99.00
46392;BME280;32098;49.448;7.904;2023-01-15T00:04:32;96691.53;;;7.35;98.75
46392;BME280;32098;49.448;7.904;2023-01-15T00:06:59;96578.09;;;6.49;98.90
46392;BME280;32098;49.448;7.904;2023-01-15T00:09:25;96694.38;;;7.28;99.39
46392;BME280;32098;49.448;7.904;2023-01-15T00:11:52;96700.63;;;7.39;98.96
46392;BME280;32098;49.448;7.904;2023-01-15T00:14:18;96690.91;;;7.28;98.92
46392;BME280;32098;49.448;7.904;2023-01-15T00:16:49;96660.22;;;7.15;98.91
46392;BME280;32098;49.448;7.904;2023-01-15T00:19:16;96637.84;;;7.11;98.52
46392;BME280;32098;49.448;7.904;2023-01-15T00:21:43;96639.63;;;7.06;97.59
46392;BME280;32098;49.448;7.904;2023-01-15T00:24:09;96649.66;;;7.42;97.52
46392;BME280;32098;49.448;7.904;2023-01-15T00:26:54;96638.31;;;7.25;97.21
46392;BME280;32098;49.448;7.904;2023-01-15T00:29:39;96654.28;;;7.30;97.58
46392;BME280;32098;49.448;7.904;2023-01-15T00:32:07;96675.09;;;7.38;97.57
46392;BME280;32098;49.448;7.904;2023-01-15T00:34:34;96654.63;;;7.34;97.55
46392;BME280;32098;49.448;7.904;2023-01-15T00:37:01;96621.88;;;7.28;96.47
46392;BME280;32098;49.448;7.904;2023-01-15T00:39:31;96583.16;;;6.89;96.87
46392;BME280;32098;49.448;7.904;2023-01-15T00:41:58;96668.25;;;7.42;97.69
46392;BME280;32098;49.448;7.904;2023-01-15T00:44:25;96605.19;;;7.11;97.41
46392;BME280;32098;49.448;7.904;2023-01-15T00:46:52;96664.34;;;7.50;96.83
46392;BME280;32098;49.448;7.904;2023-01-15T00:49:19;96655.97;;;7.36;97.84
46392;BME280;32098;49.448;7.904;2023-01-15T00:51:46;96663.13;;;7.36;97.92
46392;BME280;32098;49.448;7.904;2023-01-15T00:54:15;96658.91;;;7.40;97.92
46392;BME280;32098;49.448;7.904;2023-01-15T00:56:42;96633.94;;;7.14;97.49
46392;BME280;32098;49.448;7.904;2023-01-15T00:59:10;96662.31;;;7.35;97.51
46392;BME280;32098;49.448;7.904;2023-01-15T01:01:37;96654.13;;;7.37;98.03
46392;BME280;32098;49.448;7.904;2023-01-15T01:04:04;96647.75;;;7.38;96.80
46392;BME280;32098;49.448;7.904;2023-01-15T01:06:33;96565.44;;;6.94;96.68
46392;BME280;32098;49.448;7.904;2023-01-15T01:09:00;96574.25;;;7.00;97.11
46392;BME280;32098;49.448;7.904;2023-01-15T01:11:29;96643.19;;;7.33;97.12
46392;BME280;32098;49.448;7.904;2023-01-15T01:14:00;96644.19;;;7.27;97.17
46392;BME280;32098;49.448;7.904;2023-01-15T01:16:29;96654.53;;;7.50;96.88
46392;BME280;32098;49.448;7.904;2023-01-15T01:18:58;96552.97;;;6.73;96.67
46392;BME280;32098;49.448;7.904;2023-01-15T01:21:26;96667.28;;;7.48;96.99
46392;BME280;32098;49.448;7.904;2023-01-15T01:23:53;96682.16;;;7.49;97.00
46392;BME280;32098;49.448;7.904;2023-01-15T01:26:20;96643.25;;;7.38;96.70
46392;BME280;32098;49.448;7.904;2023-01-15T01:28:51;96683.31;;;7.58;96.88
46392;BME280;32098;49.448;7.904;2023-01-15T01:31:19;96688.97;;;7.62;96.81
46392;BME280;32098;49.448;7.904;2023-01-15T01:33:50;96686.84;;;7.64;96.25
46392;BME280;32098;49.448;7.904;2023-01-15T01:36:17;96699.75;;;7.55;96.83
46392;BME280;32098;49.448;7.904;2023-01-15T01:38:47;96688.69;;;7.63;96.60
46392;BME280;32098;49.448;7.904;2023-01-15T01:41:17;96692.56;;;7.77;96.51
46392;BME280;32098;49.448;7.904;2023-01-15T01:43:55;96700.00;;;7.75;96.37
46392;BME280;32098;49.448;7.904;2023-01-15T01:46:22;96690.38;;;7.69;96.38
46392;BME280;32098;49.448;7.904;2023-01-15T01:48:51;96638.47;;;7.40;95.94
46392;BME280;32098;49.448;7.904;2023-01-15T01:51:21;96697.34;;;7.75;96.17
46392;BME280;32098;49.448;7.904;2023-01-15T01:53:49;96706.66;;;7.78;95.82
46392;BME280;32098;49.448;7.904;2023-01-15T01:56:16;96665.22;;;7.55;96.44
46392;BME280;32098;49.448;7.904;2023-01-15T01:58:47;96708.72;;;7.71;96.48
46392;BME280;32098;49.448;7.904;2023-01-15T02:01:16;96701.63;;;7.76;95.84
46392;BME280;32098;49.448;7.904;2023-01-15T02:03:43;96575.25;;;6.94;95.60
46392;BME280;32098;49.448;7.904;2023-01-15T02:06:10;96636.28;;;7.32;95.79
46392;BME280;32098;49.448;7.904;2023-01-15T02:08:38;96715.66;;;7.72;94.94
46392;BME280;32098;49.448;7.904;2023-01-15T02:11:06;96729.97;;;7.71;93.16
46392;BME280;32098;49.448;7.904;2023-01-15T02:13:39;96726.81;;;7.52;91.78
46392;BME280;32098;49.448;7.904;2023-01-15T02:19:08;96747.47;;;7.67;90.41
46392;BME280;32098;49.448;7.904;2023-01-15T02:21:52;96759.94;;;7.66;90.10
46392;BME280;32098;49.448;7.904;2023-01-15T02:24:31;96745.31;;;7.64;90.32
46392;BME280;32098;49.448;7.904;2023-01-15T02:27:15;96740.78;;;7.64;90.05
46392;BME280;32098;49.448;7.904;2023-01-15T02:29:53;96745.47;;;7.57;89.72
46392;BME280;32098;49.448;7.904;2023-01-15T02:32:43;96727.25;;;7.44;88.72
46392;BME280;32098;49.448;7.904;2023-01-15T02:35:15;96744.56;;;7.47;88.97
46392;BME280;32098;49.448;7.904;2023-01-15T02:37:48;96705.34;;;7.15;88.68
46392;BME280;32098;49.448;7.904;2023-01-15T02:40:20;96741.44;;;7.33;89.06
46392;BME280;32098;49.448;7.904;2023-01-15T02:42:49;96654.78;;;6.72;88.99
46392;BME280;32098;49.448;7.904;2023-01-15T02:45:22;96736.72;;;7.18;88.96
46392;BME280;32098;49.448;7.904;2023-01-15T02:47:55;96707.75;;;7.00;89.17
46392;BME280;32098;49.448;7.904;2023-01-15T02:50:28;96762.31;;;7.24;89.49
46392;BME280;32098;49.448;7.904;2023-01-15T02:52:59;96738.00;;;7.16;89.07
46392;BME280;32098;49.448;7.904;2023-01-15T02:55:37;96769.75;;;7.27;89.02
46392;BME280;32098;49.448;7.904;2023-01-15T02:58:09;96710.09;;;6.97;89.15
46392;BME280;32098;49.448;7.904;2023-01-15T03:00:42;96646.88;;;6.55;88.28
46392;BME280;32098;49.448;7.904;2023-01-15T03:03:14;96770.28;;;7.24;88.50
46392;BME280;32098;49.448;7.904;2023-01-15T03:05:57;96764.97;;;7.24;88.78
46392;BME280;32098;49.448;7.904;2023-01-15T03:08:26;96706.72;;;6.85;89.34
46392;BME280;32098;49.448;7.904;2023-01-15T03:11:04;96782.25;;;7.27;89.21
46392;BME280;32098;49.448;7.904;2023-01-15T03:19:26;96786.81;;;7.15;87.93
46392;BME280;32098;49.448;7.904;2023-01-15T03:22:04;96762.13;;;6.98;88.15
46392;BME280;32098;49.448;7.904;2023-01-15T03:24:48;96786.09;;;7.03;87.81
46392;BME280;32098;49.448;7.904;2023-01-15T03:27:18;96803.28;;;7.00;87.40
46392;BME280;32098;49.448;7.904;2023-01-15T03:29:57;96675.44;;;6.20;87.26
46392;BME280;32098;49.448;7.904;2023-01-15T03:32:24;96785.91;;;6.93;87.61
46392;BME280;32098;49.448;7.904;2023-01-15T03:34:53;96766.78;;;6.91;87.28
46392;BME280;32098;49.448;7.904;2023-01-15T03:37:23;96793.16;;;6.97;87.58
46392;BME280;32098;49.448;7.904;2023-01-15T03:39:54;96807.78;;;7.00;87.08
46392;BME280;32098;49.448;7.904;2023-01-15T03:42:49;96718.38;;;6.50;86.41
46392;BME280;32098;49.448;7.904;2023-01-15T03:45:42;96793.31;;;6.91;86.68
46392;BME280;32098;49.448;7.904;2023-01-15T03:48:18;96787.22;;;6.74;86.75
46392;BME280;32098;49.448;7.904;2023-01-15T03:51:00;96804.81;;;6.80;87.35
46392;BME280;32098;49.448;7.904;2023-01-15T03:53:48;96807.47;;;6.80;87.50
46392;BME280;32098;49.448;7.904;2023-01-15T03:56:23;96683.69;;;6.07;87.24
46392;BME280;32098;49.448;7.904;2023-01-15T03:59:00;96756.13;;;6.41;86.89
46392;BME280;32098;49.448;7.904;2023-01-15T04:01:48;96670.59;;;5.84;86.88
46392;BME280;32098;49.448;7.904;2023-01-15T04:04:20;96718.97;;;6.08;86.67
46392;BME280;32098;49.448;7.904;2023-01-15T04:06:48;96823.78;;;6.72;86.79
46392;BME280;32098;49.448;7.904;2023-01-15T04:09:15;96786.53;;;6.50;86.28
46392;BME280;32098;49.448;7.904;2023-01-15T04:11:44;96830.13;;;6.71;86.36
46392;BME280;32098;49.448;7.904;2023-01-15T04:14:13;96693.28;;;5.80;85.37
46392;BME280;32098;49.448;7.904;2023-01-15T04:16:43;96847.00;;;6.36;84.30
46392;BME280;32098;49.448;7.904;2023-01-15T04:19:11;96845.41;;;6.52;84.68
46392;BME280;32098;49.448;7.904;2023-01-15T04:21:45;96842.97;;;6.34;85.01
46392;BME280;32098;49.448;7.904;2023-01-15T04:24:12;96799.41;;;6.01;84.79
46392;BME280;32098;49.448;7.904;2023-01-15T04:26:39;96830.81;;;6.21;85.76
46392;BME280;32098;49.448;7.904;2023-01-15T04:29:05;96803.56;;;5.97;85.20
46392;BME280;32098;49.448;7.904;2023-01-15T04:31:32;96814.59;;;6.06;85.57
46392;BME280;32098;49.448;7.904;2023-01-15T04:34:02;96845.75;;;6.27;85.34
46392;BME280;32098;49.448;7.904;2023-01-15T04:36:28;96744.44;;;5.69;85.61
46392;BME280;32098;49.448;7.904;2023-01-15T04:38:55;96791.03;;;5.93;84.68
46392;BME280;32098;49.448;7.904;2023-01-15T04:41:25;96794.59;;;5.87;85.36
46392;BME280;32098;49.448;7.904;2023-01-15T04:44:10;96854.97;;;6.25;84.51
46392;BME280;32098;49.448;7.904;2023-01-15T04:46:39;96861.56;;;6.22;84.48
46392;BME280;32098;49.448;7.904;2023-01-15T04:49:13;96867.72;;;6.11;83.92
46392;BME280;32098;49.448;7.904;2023-01-15T04:51:40;96859.75;;;6.11;84.50
46392;BME280;32098;49.448;7.904;2023-01-15T04:54:07;96864.50;;;6.09;84.06
46392;BME280;32098;49.448;7.904;2023-01-15T04:56:40;96839.75;;;5.80;83.79
46392;BME280;32098;49.448;7.904;2023-01-15T04:59:07;96853.25;;;5.79;84.49
46392;BME280;32098;49.448;7.904;2023-01-15T05:01:36;96853.25;;;5.79;84.62
46392;BME280;32098;49.448;7.904;2023-01-15T05:04:03;96871.78;;;5.90;84.11
46392;BME280;32098;49.448;7.904;2023-01-15T05:06:30;96850.28;;;5.64;84.24
46392;BME280;32098;49.448;7.904;2023-01-15T05:09:00;96886.19;;;5.83;84.99
46392;BME280;32098;49.448;7.904;2023-01-15T05:11:28;96893.56;;;5.81;84.59
46392;BME280;32098;49.448;7.904;2023-01-15T05:13:55;96885.72;;;5.74;85.16
46392;BME280;32098;49.448;7.904;2023-01-15T05:16:25;96887.44;;;5.80;85.18
46392;BME280;32098;49.448;7.904;2023-01-15T05:18:54;96897.91;;;5.87;84.65
46392;BME280;32098;49.448;7.904;2023-01-15T05:21:25;96869.97;;;5.56;84.57
46392;BME280;32098;49.448;7.904;2023-01-15T05:23:54;96911.53;;;5.79;82.74
46392;BME280;32098;49.448;7.904;2023-01-15T05:26:21;96795.09;;;5.03;82.24
46392;BME280;32098;49.448;7.904;2023-01-15T05:28:48;96847.84;;;5.27;82.75
46392;BME280;32098;49.448;7.904;2023-01-15T05:31:17;96875.94;;;5.40;82.36
46392;BME280;32098;49.448;7.904;2023-01-15T05:33:44;96789.56;;;4.81;82.19
46392;BME280;32098;49.448;7.904;2023-01-15T05:36:18;96904.34;;;5.45;82.27
46392;BME280;32098;49.448;7.904;2023-01-15T05:38:45;96876.13;;;5.27;82.52
46392;BME280;32098;49.448;7.904;2023-01-15T05:41:14;96847.69;;;5.11;82.18
46392;BME280;32098;49.448;7.904;2023-01-15T05:44:04;96901.63;;;5.51;82.58
46392;BME280;32098;49.448;7.904;2023-01-15T05:46:33;96838.13;;;5.10;83.02
46392;BME280;32098;49.448;7.904;2023-01-15T05:49:02;96826.50;;;4.99;83.42
46392;BME280;32098;49.448;7.904;2023-01-15T05:51:29;96883.06;;;5.39;83.40
46392;BME280;32098;49.448;7.904;2023-01-15T05:53:56;96900.44;;;5.35;83.37
46392;BME280;32098;49.448;7.904;2023-01-15T05:56:23;96857.72;;;5.09;84.33
46392;BME280;32098;49.448;7.904;2023-01-15T05:58:50;96865.16;;;5.00;83.60
46392;BME280;32098;49.448;7.904;2023-01-15T06:01:17;96931.84;;;5.32;83.73
46392;BME280;32098;49.448;7.904;2023-01-15T06:03:43;96925.50;;;5.21;83.33
46392;BME280;32098;49.448;7.904;2023-01-15T06:06:13;96881.66;;;4.84;82.94
46392;BME280;32098;49.448;7.904;2023-01-15T06:08:40;96936.94;;;5.04;82.37
46392;BME280;32098;49.448;7.904;2023-01-15T06:11:06;96854.72;;;4.64;82.63
46392;BME280;32098;49.448;7.904;2023-01-15T06:13:33;96956.50;;;5.14;83.37
46392;BME280;32098;49.448;7.904;2023-01-15T06:16:00;96953.53;;;5.22;83.61
46392;BME280;32098;49.448;7.904;2023-01-15T06:18:28;96963.78;;;5.19;83.26
46392;BME280;32098;49.448;7.904;2023-01-15T06:20:54;96966.22;;;5.20;83.53
46392;BME280;32098;49.448;7.904;2023-01-15T06:23:21;96968.47;;;5.05;83.86
46392;BME280;32098;49.448;7.904;2023-01-15T06:25:47;96928.69;;;4.82;84.07
46392;BME280;32098;49.448;7.904;2023-01-15T06:28:14;96821.03;;;4.30;83.88
46392;BME280;32098;49.448;7.904;2023-01-15T06:30:40;96912.81;;;4.82;83.22
46392;BME280;32098;49.448;7.904;2023-01-15T06:33:07;96969.97;;;5.13;82.55
46392;BME280;32098;49.448;7.904;2023-01-15T06:35:34;96948.81;;;4.83;83.16
46392;BME280;32098;49.448;7.904;2023-01-15T06:38:00;96932.19;;;4.64;82.98
46392;BME280;32098;49.448;7.904;2023-01-15T06:40:27;96920.81;;;4.64;82.69
46392;BME280;32098;49.448;7.904;2023-01-15T06:42:57;96920.22;;;4.62;82.75
46392;BME280;32098;49.448;7.904;2023-01-15T06:45:43;96965.53;;;4.95;82.44
46392;BME280;32098;49.448;7.904;2023-01-15T06:48:29;96960.44;;;4.82;82.70
46392;BME280;32098;49.448;7.904;2023-01-15T06:50:56;96955.72;;;4.84;82.31
46392;BME280;32098;49.448;7.904;2023-01-15T06:53:23;96976.81;;;4.91;81.61
46392;BME280;32098;49.448;7.904;2023-01-15T06:55:49;96968.81;;;4.79;82.10
46392;BME280;32098;49.448;7.904;2023-01-15T06:58:16;96984.47;;;4.81;81.38
46392;BME280;32098;49.448;7.904;2023-01-15T07:00:42;97005.38;;;4.82;81.36
46392;BME280;32098;49.448;7.904;2023-01-15T07:03:10;96947.13;;;4.23;81.32
46392;BME280;32098;49.448;7.904;2023-01-15T07:05:39;96937.91;;;4.14;82.22
46392;BME280;32098;49.448;7.904;2023-01-15T07:08:06;97007.69;;;4.60;82.23
46392;BME280;32098;49.448;7.904;2023-01-15T07:10:34;97029.38;;;4.69;81.83
46392;BME280;32098;49.448;7.904;2023-01-15T07:13:01;96984.19;;;4.34;82.05
46392;BME280;32098;49.448;7.904;2023-01-15T07:15:27;97012.84;;;4.55;81.89
46392;BME280;32098;49.448;7.904;2023-01-15T07:17:55;97033.25;;;4.66;81.76
46392;BME280;32098;49.448;7.904;2023-01-15T07:20:22;97032.50;;;4.59;82.00
46392;BME280;32098;49.448;7.904;2023-01-15T07:22:50;97021.72;;;4.61;82.07
46392;BME280;32098;49.448;7.904;2023-01-15T07:25:17;97032.31;;;4.61;83.00
46392;BME280;32098;49.448;7.904;2023-01-15T07:27:47;97005.03;;;4.42;82.67
46392;BME280;32098;49.448;7.904;2023-01-15T07:30:14;97007.84;;;4.47;82.44
46392;BME280;32098;49.448;7.904;2023-01-15T07:32:41;97013.34;;;4.46;81.99
46392;BME280;32098;49.448;7.904;2023-01-15T07:35:08;96907.69;;;3.67;82.17
46392;BME280;32098;49.448;7.904;2023-01-15T07:37:35;97044.03;;;4.47;82.00
46392;BME280;32098;49.448;7.904;2023-01-15T07:40:03;97049.47;;;4.52;82.45
46392;BME280;32098;49.448;7.904;2023-01-15T07:42:30;97051.31;;;4.51;82.35
46392;BME280;32098;49.448;7.904;2023-01-15T07:45:19;97059.47;;;4.50;82.12
46392;BME280;32098;49.448;7.904;2023-01-15T07:48:08;97045.34;;;4.38;81.76
46392;BME280;32098;49.448;7.904;2023-01-15T07:50:54;96996.94;;;4.01;82.37
46392;BME280;32098;49.448;7.904;2023-01-15T07:53:21;97071.66;;;4.51;81.98
46392;BME280;32098;49.448;7.904;2023-01-15T07:55:47;97005.50;;;3.96;81.96
46392;BME280;32098;49.448;7.904;2023-01-15T07:58:14;97087.63;;;4.38;82.38
46392;BME280;32098;49.448;7.904;2023-01-15T08:00:40;97081.97;;;4.34;82.26
46392;BME280;32098;49.448;7.904;2023-01-15T08:03:07;97049.59;;;4.21;82.67
46392;BME280;32098;49.448;7.904;2023-01-15T08:05:35;97029.94;;;3.92;82.34
46392;BME280;32098;49.448;7.904;2023-01-15T08:08:12;97072.81;;;4.12;82.26
46392;BME280;32098;49.448;7.904;2023-01-15T08:10:39;97060.81;;;4.16;82.45
46392;BME280;32098;49.448;7.904;2023-01-15T08:13:26;97059.56;;;4.19;82.55
46392;BME280;32098;49.448;7.904;2023-01-15T08:16:12;97094.66;;;4.26;82.51
46392;BME280;32098;49.448;7.904;2023-01-15T08:18:40;97090.34;;;4.31;82.78
46392;BME280;32098;49.448;7.904;2023-01-15T08:21:12;97095.03;;;4.29;82.63
46392;BME280;32098;49.448;7.904;2023-01-15T08:23:41;97081.72;;;4.18;82.35
46392;BME280;32098;49.448;7.904;2023-01-15T08:26:14;97056.47;;;4.03;82.47
46392;BME280;32098;49.448;7.904;2023-01-15T08:28:42;97049.38;;;3.97;82.61
46392;BME280;32098;49.448;7.904;2023-01-15T08:31:12;97079.78;;;4.06;82.40
46392;BME280;32098;49.448;7.904;2023-01-15T08:33:40;97105.75;;;4.09;81.88
46392;BME280;32098;49.448;7.904;2023-01-15T08:36:07;97065.72;;;3.88;82.29
46392;BME280;32098;49.448;7.904;2023-01-15T08:38:41;97040.50;;;3.67;81.99
46392;BME280;32098;49.448;7.904;2023-01-15T08:41:26;97056.41;;;3.85;82.17
46392;BME280;32098;49.448;7.904;2023-01-15T08:43:54;97091.06;;;3.95;82.39
46392;BME280;32098;49.448;7.904;2023-01-15T08:46:22;97126.38;;;4.26;81.98
46392;BME280;32098;49.448;7.904;2023-01-15T08:48:48;96956.81;;;3.18;82.16
46392;BME280;32098;49.448;7.904;2023-01-15T08:51:15;97132.09;;;4.23;81.62
46392;BME280;32098;49.448;7.904;2023-01-15T08:53:42;97137.38;;;4.23;82.13
46392;BME280;32098;49.448;7.904;2023-01-15T08:56:13;97143.41;;;4.30;81.60
46392;BME280;32098;49.448;7.904;2023-01-15T08:58:42;97130.47;;;4.22;81.19
46392;BME280;32098;49.448;7.904;2023-01-15T09:01:10;97035.44;;;3.66;81.24
46392;BME280;32098;49.448;7.904;2023-01-15T09:03:45;97152.38;;;4.29;81.83
46392;BME280;32098;49.448;7.904;2023-01-15T09:06:15;97100.31;;;4.04;81.92
46392;BME280;32098;49.448;7.904;2023-01-15T09:08:41;97156.34;;;4.38;81.54
46392;BME280;32098;49.448;7.904;2023-01-15T09:11:11;97150.31;;;4.31;80.98
46392;BME280;32098;49.448;7.904;2023-01-15T09:13:40;97117.53;;;4.14;80.56
46392;BME280;32098;49.448;7.904;2023-01-15T09:16:10;97146.31;;;4.22;80.80
46392;BME280;32098;49.448;7.904;2023-01-15T09:18:39;97102.75;;;3.81;81.51
46392;BME280;32098;49.448;7.904;2023-01-15T09:21:11;97173.94;;;4.26;80.84
46392;BME280;32098;49.448;7.904;2023-01-15T09:23:39;97150.00;;;3.89;81.25
46392;BME280;32098;49.448;7.904;2023-01-15T09:26:24;97188.66;;;4.15;81.22
46392;BME280;32098;49.448;7.904;2023-01-15T09:28:52;97186.34;;;4.25;81.63
46392;BME280;32098;49.448;7.904;2023-01-15T09:31:24;97182.53;;;4.21;81.13
46392;BME280;32098;49.448;7.904;2023-01-15T09:33:53;97097.97;;;3.65;80.06
46392;BME280;32098;49.448;7.904;2023-01-15T09:36:29;97189.63;;;4.21;79.97
46392;BME280;32098;49.448;7.904;2023-01-15T09:38:57;97145.59;;;3.83;80.57
46392;BME280;32098;49.448;7.904;2023-01-15T09:41:38;97146.59;;;3.82;79.68
46392;BME280;32098;49.448;7.904;2023-01-15T09:44:42;97213.41;;;4.21;79.92
46392;BME280;32098;49.448;7.904;2023-01-15T09:50:41;97174.72;;;4.01;80.03
46392;BME280;32098;49.448;7.904;2023-01-15T09:55:59;97222.69;;;4.30;79.31
46392;BME280;32098;49.448;7.904;2023-01-15T09:58:36;97212.19;;;4.17;79.32
46392;BME280;32098;49.448;7.904;2023-01-15T10:01:04;97235.38;;;4.15;78.73
46392;BME280;32098;49.448;7.904;2023-01-15T10:03:44;97204.22;;;3.92;78.52
46392;BME280;32098;49.448;7.904;2023-01-15T10:06:37;97240.56;;;4.03;78.82
46392;BME280;32098;49.448;7.904;2023-01-15T10:09:27;97247.19;;;4.12;79.63
46392;BME280;32098;49.448;7.904;2023-01-15T10:12:15;97244.34;;;4.14;78.41
46392;BME280;32098;49.448;7.904;2023-01-15T10:15:40;97255.50;;;4.16;78.61
46392;BME280;32098;49.448;7.904;2023-01-15T10:18:15;97243.13;;;4.09;78.79
46392;BME280;32098;49.448;7.904;2023-01-15T10:26:35;97259.56;;;4.18;78.50
46392;BME280;32098;49.448;7.904;2023-01-15T10:29:18;97188.69;;;3.77;78.01
46392;BME280;32098;49.448;7.904;2023-01-15T10:31:54;97254.28;;;4.11;78.16
46392;BME280;32098;49.448;7.904;2023-01-15T10:37:37;97256.75;;;4.06;78.47
46392;BME280;32098;49.448;7.904;2023-01-15T10:43:10;97259.88;;;3.97;77.44
46392;BME280;32098;49.448;7.904;2023-01-15T10:45:48;97265.25;;;3.84;77.48
46392;BME280;32098;49.448;7.904;2023-01-15T10:48:51;97266.56;;;3.99;77.48
46392;BME280;32098;49.448;7.904;2023-01-15T10:54:02;97260.31;;;4.25;77.49
46392;BME280;32098;49.448;7.904;2023-01-15T10:56:46;97278.00;;;4.31;77.21
46392;BME280;32098;49.448;7.904;2023-01-15T10:59:34;97177.72;;;3.36;77.81
46392;BME280;32098;49.448;7.904;2023-01-15T11:02:15;97275.34;;;3.29;77.17
46392;BME280;32098;49.448;7.904;2023-01-15T11:04:45;97314.50;;;3.39;76.48
46392;BME280;32098;49.448;7.904;2023-01-15T11:07:11;97310.03;;;3.39;75.55
46392;BME280;32098;49.448;7.904;2023-01-15T11:09:44;97319.44;;;3.03;74.48
46392;BME280;32098;49.448;7.904;2023-01-15T11:16:35;97229.53;;;2.12;75.86
46392;BME280;32098;49.448;7.904;2023-01-15T11:19:09;97317.38;;;2.65;76.36
46392;BME280;32098;49.448;7.904;2023-01-15T11:22:13;97295.25;;;2.60;76.61
46392;BME280;32098;49.448;7.904;2023-01-15T11:27:19;97321.22;;;2.69;76.48
46392;BME280;32098;49.448;7.904;2023-01-15T11:29:58;97256.50;;;2.34;75.78
46392;BME280;32098;49.448;7.904;2023-01-15T11:32:33;97342.50;;;2.68;76.19
46392;BME280;32098;49.448;7.904;2023-01-15T11:35:16;97339.84;;;2.61;76.13
46392;BME280;32098;49.448;7.904;2023-01-15T11:37:43;97258.69;;;2.04;76.33
46392;BME280;32098;49.448;7.904;2023-01-15T11:40:21;97340.44;;;2.57;76.56
46392;BME280;32098;49.448;7.904;2023-01-15T11:42:52;97316.91;;;2.42;76.34
46392;BME280;32098;49.448;7.904;2023-01-15T11:45:50;97349.78;;;2.59;77.02
46392;BME280;32098;49.448;7.904;2023-01-15T11:48:43;97330.31;;;2.41;77.93
46392;BME280;32098;49.448;7.904;2023-01-15T11:51:33;97335.81;;;2.65;77.96
46392;BME280;32098;49.448;7.904;2023-01-15T11:54:10;97316.56;;;2.58;78.52
46392;BME280;32098;49.448;7.904;2023-01-15T11:56:41;97336.41;;;2.74;78.72
46392;BME280;32098;49.448;7.904;2023-01-15T11:59:13;97334.19;;;2.77;78.61
46392;BME280;32098;49.448;7.904;2023-01-15T12:01:59;97313.31;;;2.69;79.15
46392;BME280;32098;49.448;7.904;2023-01-15T12:05:00;97329.78;;;2.91;78.82
46392;BME280;32098;49.448;7.904;2023-01-15T12:07:30;97288.38;;;2.65;79.38
46392;BME280;32098;49.448;7.904;2023-01-15T12:10:23;97338.47;;;2.92;79.20
46392;BME280;32098;49.448;7.904;2023-01-15T12:21:54;97301.94;;;3.41;80.25
46392;BME280;32098;49.448;7.904;2023-01-15T12:29:55;97245.06;;;3.45;80.67
46392;BME280;32098;49.448;7.904;2023-01-15T12:32:30;97246.88;;;3.51;80.00
46392;BME280;32098;49.448;7.904;2023-01-15T12:35:03;97235.06;;;3.60;78.91
46392;BME280;32098;49.448;7.904;2023-01-15T12:37:44;97257.31;;;3.77;78.12
46392;BME280;32098;49.448;7.904;2023-01-15T12:42:40;97225.97;;;3.56;79.25
46392;BME280;32098;49.448;7.904;2023-01-15T12:45:56;97281.78;;;4.04;79.02
46392;BME280;32098;49.448;7.904;2023-01-15T12:48:40;97285.41;;;4.09;78.85
46392;BME280;32098;49.448;7.904;2023-01-15T12:51:19;97275.31;;;4.00;77.95
46392;BME280;32098;49.448;7.904;2023-01-15T12:53:52;97270.34;;;3.72;77.17
46392;BME280;32098;49.448;7.904;2023-01-15T12:56:28;97219.50;;;3.39;77.90
46392;BME280;32098;49.448;7.904;2023-01-15T13:01:55;97293.19;;;3.98;78.07
46392;BME280;32098;49.448;7.904;2023-01-15T13:04:42;97309.06;;;3.91;77.82
46392;BME280;32098;49.448;7.904;2023-01-15T13:07:19;97299.38;;;3.79;77.23
46392;BME280;32098;49.448;7.904;2023-01-15T13:09:57;97237.16;;;3.45;75.72
46392;BME280;32098;49.448;7.904;2023-01-15T13:12:27;97269.16;;;3.68;76.11
46392;BME280;32098;49.448;7.904;2023-01-15T13:14:55;97273.41;;;3.69;76.26
46392;BME280;32098;49.448;7.904;2023-01-15T13:17:54;97270.41;;;4.03;76.46
46392;BME280;32098;49.448;7.904;2023-01-15T13:20:38;97229.81;;;3.54;75.17
46392;BME280;32098;49.448;7.904;2023-01-15T13:29:16;97273.88;;;3.53;75.55
46392;BME280;32098;49.448;7.904;2023-01-15T13:31:56;97300.53;;;3.89;76.11
46392;BME280;32098;49.448;7.904;2023-01-15T13:36:57;97225.59;;;3.46;75.45
46392;BME280;32098;49.448;7.904;2023-01-15T13:39:35;97298.66;;;3.96;74.66
46392;BME280;32098;49.448;7.904;2023-01-15T13:42:04;97297.44;;;3.99;75.11
46392;BME280;32098;49.448;7.904;2023-01-15T13:44:52;97307.81;;;3.94;74.67
46392;BME280;32098;49.448;7.904;2023-01-15T13:47:24;97292.25;;;3.79;73.30
46392;BME280;32098;49.448;7.904;2023-01-15T13:49:58;97283.88;;;3.89;73.56
46392;BME280;32098;49.448;7.904;2023-01-15T13:52:36;97199.44;;;3.38;74.20
46392;BME280;32098;49.448;7.904;2023-01-15T13:57:39;97274.25;;;3.57;73.04
46392;BME280;32098;49.448;7.904;2023-01-15T14:00:36;97222.81;;;3.21;73.79
46392;BME280;32098;49.448;7.904;2023-01-15T14:03:28;97284.91;;;3.30;73.98
46392;BME280;32098;49.448;7.904;2023-01-15T14:06:05;97309.19;;;3.52;75.07
46392;BME280;32098;49.448;7.904;2023-01-15T14:08:41;97304.31;;;3.49;74.49
46392;BME280;32098;49.448;7.904;2023-01-15T14:11:43;97322.41;;;3.45;75.28
46392;BME280;32098;49.448;7.904;2023-01-15T14:15:00;97321.38;;;3.46;76.81
46392;BME280;32098;49.448;7.904;2023-01-15T14:23:43;97294.16;;;3.59;77.65
46392;BME280;32098;49.448;7.904;2023-01-15T14:26:20;97300.66;;;3.63;77.53
46392;BME280;32098;49.448;7.904;2023-01-15T14:28:59;97302.28;;;3.58;77.27
46392;BME280;32098;49.448;7.904;2023-01-15T14:34:25;97310.44;;;3.43;77.63
46392;BME280;32098;49.448;7.904;2023-01-15T14:36:59;97167.72;;;2.67;77.22
46392;BME280;32098;49.448;7.904;2023-01-15T14:39:39;97302.66;;;3.68;77.03
46392;BME280;32098;49.448;7.904;2023-01-15T14:47:47;97305.72;;;3.65;76.98
46392;BME280;32098;49.448;7.904;2023-01-15T14:50:26;97283.66;;;3.46;77.03
46392;BME280;32098;49.448;7.904;2023-01-15T14:53:23;97309.16;;;3.65;77.53
46392;BME280;32098;49.448;7.904;2023-01-15T14:56:21;97311.19;;;3.70;77.04
46392;BME280;32098;49.448;7.904;2023-01-15T14:59:08;97317.19;;;3.90;77.16
46392;BME280;32098;49.448;7.904;2023-01-15T15:06:59;97257.09;;;3.28;77.22
46392;BME280;32098;49.448;7.904;2023-01-15T15:09:47;97336.19;;;3.61;77.43
46392;BME280;32098;49.448;7.904;2023-01-15T15:12:39;97307.81;;;3.43;76.93